HSKO2: Arkansas River, Haskell, OK

Data processed at Thu Dec 14 2017 23:13


All information presented herein is the property of the government of the United States of America and may be revised or deleted at any time without prior notice.
Dissemination of this information without the expressed written consent of the Public Affairs Office, Tulsa District U.S. Army Corps of Engineers is strictly prohibited.
These data are gathered electronically and, as presented, have not undergone any form of quality control. These data are not guaranteed to be valid or correct.
Go to home page.
Go to station list.

Upstream stations:

Downstream station:
Previous Day
Next Day
Current Day
    
SHEF ID:       HSKO2     Arkansas River near Haskell, OK
STATION TYPE:  

               PRECIP     STAGE  STAGE(2)  RIV-FLOW  BAT-LOAD
                   in        ft        ft       cfs      volt
              Ccp-Rev   Ccp-Rev   Ccp-Rev   Ccp-Rev   Ccp-Rev
(US/Central)
12/12 00:00      0.00      3.88      3.81      2741     12.57
12/12 01:00      0.00      3.87      3.85      2724     12.57
12/12 02:00      0.00      3.90      3.88      2775     12.49
12/12 03:00      0.00      3.91      3.88      2792     12.49
12/12 04:00      0.00      3.88      3.86      2741     12.49
12/12 05:00      0.00      3.82      3.81      2637     12.49
12/12 06:00      0.00      3.84      3.76      2672     12.41
12/12 07:00      0.00      3.82      3.72      2637     12.41
12/12 08:00      0.00      3.77      3.73      2550     12.41
12/12 09:00      0.00      3.84      3.80      2672     13.44
12/12 10:00      0.00      3.95      3.92      2862     13.53
12/12 11:00      0.00      4.15      4.06      3211     13.53
12/12 12:00      0.00      4.24      4.14      3375     13.53
12/12 13:00      0.00      4.31      4.18      3501     13.53
12/12 14:00      0.00      4.33      4.22      3537     13.53
12/12 15:00      0.00      4.31      4.21      3501     13.53
12/12 16:00      0.00      4.28      4.19      3446     13.53
12/12 17:00      0.00      4.26      4.16      3411     13.37
12/12 18:00      0.00      4.26      4.13      3411     13.13
12/12 19:00      0.00      4.28      4.15      3446     12.73
12/12 20:00      0.00      4.34      4.20      3555     12.57
12/12 21:00      0.00      4.41      4.25      3682     12.57
12/12 22:00      0.00      4.47      4.30      3791     12.49
12/12 23:00      0.00      4.50      4.35      3845     12.49